aviador You're here:

BKPR Decoded Metar

PRISHTINA in SERBIA
Report Time2017-05-23 20:00:00
UTC Time2017-05-23 20:29:50
Flight Rules vfr VFR
WindVRB at 01 kt
Visibility9999 m
Phenomena:N/A
Clouds:Few TCU 035 Hf
Scattered 040 Hf
Broken 080 Hf
Expected CloudBase > 2,000 ft AGL from Temp-Dew spread
Ceiling8,000 ft
Temp15°C (ISA +4)
Dew Point10°C (72% RH)
AAT14.7°C
QNH1019 hPa
Density Alt2,303 ft
Elevation1,890 ft
Report Wrong Elevation
Raw Report
BKPR 232000Z VRB01KT 9999 FEW035TCU SCT040 BKN080 15/10 Q1019
NOSIG=

Extra information for BKPR:More info

Metar Taf Metar & Taf Last 4 Metars F.Rules Stats Wind Profile Meteogram Temp Stats Airport Information Weather charts Add Link Nearby VenuesMetar ALERT Operation Metar Decoded Social comments